Time;durP1;ratioP1;P1;durP2;ratioP2;P2;SDS_P1;SDS_P2;PMS_P1;PMS_P2;Temp;Humidity;BMP_temperature;BMP_pressure;BME280_temperature;BME280_humidity;BME280_pressure;Samples;Min_cycle;Max_cycle;Signal;HPM_P1;HPM_P2
2021/03/21 00:00:23;;;;;;;21.45;11.25;;;;;;;-1.80;62.64;100648.63;99380;1175;82515;-62
2021/03/21 00:02:48;;;;;;;20.50;10.00;;;;;;;-1.81;62.42;100647.78;99396;1171;66959;-62
2021/03/21 00:04:53;;;;;;;21.30;11.00;;;;;;;-1.79;62.48;100645.05;99376;1178;87200;-64
2021/03/21 00:06:58;;;;;;;20.90;9.95;;;;;;;-1.76;62.99;100641.34;99399;1178;75441;-64
2021/03/21 00:09:04;;;;;;;23.50;10.80;;;;;;;-1.75;62.58;100645.66;99389;1171;89387;-62
2021/03/21 00:11:10;;;;;;;22.85;9.80;;;;;;;-1.70;62.56;100632.98;99371;1177;82259;-65
2021/03/21 00:13:16;;;;;;;21.45;10.50;;;;;;;-1.71;62.18;100628.63;99392;1171;67182;-66
2021/03/21 00:15:21;;;;;;;;;;;;;;;-1.67;62.54;100630.94;99385;1176;88104;-65
2021/03/21 00:17:27;;;;;;;18.40;10.60;;;;;;;-1.63;62.34;100618.34;99403;1178;75911;-64
2021/03/21 00:19:32;;;;;;;21.40;10.30;;;;;;;-1.60;62.53;100623.43;99387;1179;90244;-63
2021/03/21 00:21:37;;;;;;;18.90;10.00;;;;;;;-1.66;62.72;100613.26;99369;1178;82444;-63
2021/03/21 00:23:43;;;;;;;19.20;9.40;;;;;;;-1.67;62.17;100600.95;99392;1171;66950;-62
2021/03/21 00:25:48;;;;;;;20.40;10.90;;;;;;;-1.66;62.25;100602.66;99395;1178;87199;-62
2021/03/21 00:27:54;;;;;;;18.70;9.50;;;;;;;-1.65;62.37;100602.58;99394;1178;75937;-62
2021/03/21 00:29:59;;;;;;;19.90;10.40;;;;;;;-1.63;62.84;100592.71;99399;1176;89188;-62
2021/03/21 00:32:06;;;;;;;18.35;9.35;;;;;;;-1.62;62.37;100594.39;99376;1178;83284;-63
2021/03/21 00:34:12;;;;;;;20.50;9.75;;;;;;;-1.67;62.41;100585.92;99399;1178;66948;-66
2021/03/21 00:36:19;;;;;;;21.35;9.65;;;;;;;-1.70;62.67;100585.31;99390;1178;87084;-62
2021/03/21 00:38:28;;;;;;;20.25;10.25;;;;;;;-1.71;62.16;100578.31;99402;1178;75370;-61
2021/03/21 00:40:35;;;;;;;16.30;8.50;;;;;;;-1.74;62.19;100583.81;99404;1171;89850;-62
2021/03/21 00:42:40;;;;;;;19.40;10.50;;;;;;;-1.76;63.10;100572.50;99377;1178;82582;-62
2021/03/21 00:44:46;;;;;;;18.00;9.50;;;;;;;-1.75;62.68;100566.22;99402;1178;67243;-63
2021/03/21 00:46:51;;;;;;;18.90;9.80;;;;;;;-1.73;62.96;100559.86;99397;1178;87062;-62
2021/03/21 00:48:56;;;;;;;13.20;6.77;;;;;;;-1.74;63.73;100552.05;99398;1178;75606;-62
2021/03/21 00:51:02;;;;;;;18.95;10.00;;;;;;;-1.75;62.75;100550.34;99403;1178;89322;-63
2021/03/21 00:53:08;;;;;;;17.90;9.65;;;;;;;-1.76;63.21;100543.37;99380;1178;82721;-61
2021/03/21 00:55:15;;;;;;;22.60;11.05;;;;;;;-1.76;62.56;100538.08;99402;1178;66865;-60
2021/03/21 00:57:21;;;;;;;18.70;8.90;;;;;;;-1.77;62.91;100539.02;99396;1178;87420;-60
2021/03/21 00:59:26;;;;;;;19.50;9.30;;;;;;;-1.73;62.91;100532.56;99396;1171;74614;-61
2021/03/21 01:01:33;;;;;;;20.27;9.20;;;;;;;-1.76;62.73;100530.98;99393;1175;88881;-61
2021/03/21 01:03:39;;;;;;;21.80;10.30;;;;;;;-1.82;62.94;100524.31;99369;1176;82625;-61
2021/03/21 01:05:49;;;;;;;18.60;8.90;;;;;;;-1.76;63.32;100517.74;99396;1178;66931;-61
2021/03/21 01:07:58;;;;;;;18.30;8.60;;;;;;;-1.85;63.31;100508.64;99375;1171;86922;-61
2021/03/21 01:10:10;;;;;;;21.35;9.00;;;;;;;-1.82;63.15;100507.58;99394;1178;76125;-62
2021/03/21 01:12:16;;;;;;;18.20;9.70;;;;;;;-1.76;63.36;100501.00;99396;1178;89533;-62
2021/03/21 01:14:24;;;;;;;18.75;9.20;;;;;;;-1.72;62.88;100491.88;99392;1178;82634;-62
2021/03/21 01:16:33;;;;;;;19.00;9.10;;;;;;;-1.68;63.03;100488.92;99401;1178;67105;-62
2021/03/21 01:18:41;;;;;;;18.60;9.10;;;;;;;-1.69;63.34;100476.63;99403;1176;87040;-62
2021/03/21 01:20:47;;;;;;;16.17;8.73;;;;;;;-1.68;63.26;100475.67;99392;1175;74720;-62
2021/03/21 01:22:52;;;;;;;17.80;9.60;;;;;;;-1.67;63.44;100487.94;99392;1178;89792;-62
2021/03/21 01:24:57;;;;;;;18.20;8.70;;;;;;;-1.66;63.60;100464.95;99382;1178;83213;-62
2021/03/21 01:27:03;;;;;;;17.40;9.70;;;;;;;-1.62;63.42;100455.85;99385;1178;66849;-64
2021/03/21 01:29:09;;;;;;;12.60;7.90;;;;;;;-1.63;63.44;100457.65;99371;1179;86878;-62
2021/03/21 01:31:21;;;;;;;18.15;8.90;;;;;;;-1.63;63.60;100454.15;99395;1178;76078;-62
2021/03/21 01:33:27;;;;;;;16.80;8.30;;;;;;;-1.62;63.02;100445.26;99392;1175;88757;-62
2021/03/21 01:35:32;;;;;;;16.70;8.20;;;;;;;-1.69;63.09;100434.25;99372;1176;82402;-61
2021/03/21 01:37:38;;;;;;;16.80;9.00;;;;;;;-1.68;63.45;100437.75;99395;1178;67089;-61
2021/03/21 01:39:43;;;;;;;17.10;8.10;;;;;;;-1.65;63.60;100429.59;99399;1178;87765;-61
2021/03/21 01:41:58;;;;;;;16.40;7.90;;;;;;;-1.70;63.23;100429.08;99396;1178;75958;-61
2021/03/21 01:44:10;;;;;;;14.30;8.10;;;;;;;-1.74;63.80;100425.80;99395;1171;90188;-61
2021/03/21 01:46:22;;;;;;;17.00;8.40;;;;;;;-1.74;63.66;100419.66;99387;1173;83051;-61
2021/03/21 01:48:40;;;;;;;16.50;8.10;;;;;;;-1.73;63.58;100416.88;99411;1177;66947;-62
2021/03/21 01:50:53;;;;;;;18.90;9.00;;;;;;;-1.73;63.32;100411.58;99395;1178;87694;-62
2021/03/21 01:52:58;;;;;;;17.45;8.00;;;;;;;-1.81;63.67;100404.20;99400;1178;75347;-62
2021/03/21 01:55:11;;;;;;;16.80;7.60;;;;;;;-1.84;63.62;100403.60;99397;1173;89438;-62
2021/03/21 01:57:19;;;;;;;13.30;6.80;;;;;;;-1.90;63.45;100394.30;99378;1176;85514;-61
2021/03/21 01:59:29;;;;;;;13.30;7.30;;;;;;;-1.89;63.67;100395.12;99398;1178;67013;-62
2021/03/21 02:01:34;;;;;;;14.70;8.10;;;;;;;-1.89;63.87;100388.03;99383;1179;87305;-63
2021/03/21 02:03:39;;;;;;;18.00;8.90;;;;;;;-1.88;63.48;100389.73;99398;1171;75266;-63
2021/03/21 02:05:45;;;;;;;16.40;8.30;;;;;;;-1.87;63.77;100383.46;99391;1179;89579;-63
2021/03/21 02:08:27;;;;;;;15.75;7.70;;;;;;;-1.83;63.61;100379.65;99389;1176;81577;-63
2021/03/21 02:10:41;;;;;;;15.75;7.50;;;;;;;-1.81;64.05;100369.78;99401;1171;66977;-63
2021/03/21 02:12:57;;;;;;;13.50;7.80;;;;;;;-1.84;64.15;100372.66;99392;1178;87512;-63
2021/03/21 02:15:17;;;;;;;14.45;7.10;;;;;;;-1.82;64.21;100367.27;99403;1178;76200;-63
2021/03/21 02:17:34;;;;;;;14.15;7.70;;;;;;;-1.80;64.42;100358.25;99392;1178;89652;-60
2021/03/21 02:20:14;;;;;;;14.90;7.20;;;;;;;-1.75;64.11;100349.95;99374;1178;82670;-61
2021/03/21 02:22:29;;;;;;;15.70;7.15;;;;;;;-1.67;63.88;100350.23;99403;1178;66963;-61
2021/03/21 02:24:57;;;;;;;16.40;7.65;;;;;;;-1.60;64.45;100338.25;99387;1178;87904;-62
2021/03/21 02:27:39;;;;;;;12.50;7.65;;;;;;;-1.60;64.22;100332.11;99404;1171;74765;-61
2021/03/21 02:29:55;;;;;;;13.95;7.00;;;;;;;-1.53;64.21;100320.08;99381;1171;89976;-61
2021/03/21 02:32:06;;;;;;;12.50;6.70;;;;;;;-1.47;64.42;100322.28;99386;1177;82242;-61
2021/03/21 02:34:19;;;;;;;13.75;6.70;;;;;;;-1.51;63.69;100315.53;99385;1171;66963;-61
2021/03/21 02:36:30;;;;;;;15.70;7.10;;;;;;;-1.51;64.33;100315.53;99390;1174;86334;-61
2021/03/21 02:38:48;;;;;;;14.60;7.20;;;;;;;-1.49;64.42;100303.02;99385;1178;76007;-62
2021/03/21 02:40:59;;;;;;;11.10;5.80;;;;;;;-1.48;64.11;100294.09;99386;1177;89455;-61
2021/03/21 02:43:09;;;;;;;12.15;7.70;;;;;;;-1.59;64.49;100286.14;99390;1174;82302;-61
2021/03/21 02:45:21;;;;;;;13.65;6.55;;;;;;;-1.62;64.52;100273.94;99398;1178;67102;-61
2021/03/21 02:47:30;;;;;;;15.70;7.60;;;;;;;-1.55;64.32;100282.28;99381;1178;87828;-61
2021/03/21 02:49:41;;;;;;;12.00;6.60;;;;;;;-1.54;64.59;100268.91;99391;1178;76220;-61
2021/03/21 02:51:52;;;;;;;11.40;7.00;;;;;;;-1.50;64.19;100272.17;99389;1178;88963;-60
2021/03/21 02:54:07;;;;;;;13.35;6.30;;;;;;;-1.46;63.99;100269.20;99390;1178;82379;-60
2021/03/21 02:56:20;;;;;;;13.90;6.80;;;;;;;-1.46;64.33;100268.35;99412;1178;66891;-60
2021/03/21 02:58:34;;;;;;;13.95;6.50;;;;;;;-1.44;64.08;100263.77;99393;1178;87235;-60
2021/03/21 03:00:45;;;;;;;13.57;6.97;;;;;;;-1.41;64.68;100264.39;99414;1174;75160;-61
2021/03/21 03:02:54;;;;;;;11.10;6.05;;;;;;;-1.36;64.06;100250.78;99390;1178;89184;-61
2021/03/21 03:05:10;;;;;;;12.90;6.70;;;;;;;-1.41;64.13;100247.65;99371;1174;83234;-60
2021/03/21 03:07:21;;;;;;;11.80;6.40;;;;;;;-1.43;64.42;100239.80;99405;1171;66973;-61
2021/03/21 03:09:38;;;;;;;11.35;5.80;;;;;;;-1.45;64.61;100241.73;99378;1174;87970;-60
2021/03/21 03:11:52;;;;;;;12.80;6.30;;;;;;;-1.42;64.44;100235.35;99409;1178;75677;-60
2021/03/21 03:14:03;;;;;;;10.40;5.95;;;;;;;-1.39;64.01;100240.42;99406;1178;89883;-60
2021/03/21 03:16:11;;;;;;;;;;;;;;;-1.36;64.21;100234.89;99383;1171;81461;-61
2021/03/21 03:18:39;;;;;;;13.30;6.30;;;;;;;-1.34;64.76;100235.61;99399;1171;67101;-61
2021/03/21 03:20:51;;;;;;;15.20;6.70;;;;;;;-1.30;64.80;100218.52;99381;1178;87408;-61
2021/03/21 03:23:07;;;;;;;13.00;6.20;;;;;;;-1.23;64.35;100209.13;99392;1178;74612;-60
2021/03/21 03:25:22;;;;;;;13.30;5.80;;;;;;;-1.21;64.67;100215.17;99398;1178;89489;-61
2021/03/21 03:27:37;;;;;;;10.90;5.80;;;;;;;-1.24;64.31;100212.76;99377;1174;82036;-62
2021/03/21 03:29:52;;;;;;;10.60;6.60;;;;;;;-1.20;64.72;100198.29;99398;1178;67536;-60
2021/03/21 03:32:00;;;;;;;12.55;6.30;;;;;;;-1.17;64.67;100192.75;99379;1170;87153;-60
2021/03/21 03:34:06;;;;;;;11.70;6.00;;;;;;;-1.11;64.76;100192.28;99409;1178;74617;-61
2021/03/21 03:36:15;;;;;;;12.00;6.10;;;;;;;-1.10;64.55;100190.48;99393;1178;89651;-61
2021/03/21 03:38:23;;;;;;;10.17;5.00;;;;;;;-1.10;65.24;100182.53;99388;1171;81838;-61
2021/03/21 03:40:28;;;;;;;11.10;6.30;;;;;;;-1.10;64.44;100179.88;99390;1170;66992;-61
2021/03/21 03:42:46;;;;;;;12.00;5.90;;;;;;;-1.07;64.53;100183.11;99393;1171;87195;-61
2021/03/21 03:45:10;;;;;;;11.80;5.90;;;;;;;-1.08;65.03;100178.79;99396;1178;75943;-61
2021/03/21 03:47:17;;;;;;;;;;;;;;;-1.06;64.58;100163.59;99405;1178;89669;-61
2021/03/21 03:49:39;;;;;;;13.40;6.30;;;;;;;-0.98;64.90;100168.28;99378;1176;82347;-62
2021/03/21 03:52:03;;;;;;;11.40;6.25;;;;;;;-1.03;64.55;100160.70;99382;1171;67613;-61
2021/03/21 03:54:22;;;;;;;8.90;5.00;;;;;;;-1.01;64.90;100156.13;99394;1174;86933;-60
2021/03/21 03:56:38;;;;;;;10.25;6.10;;;;;;;-1.04;64.84;100159.02;99392;1178;74260;-60
2021/03/21 03:58:58;;;;;;;9.90;5.50;;;;;;;-1.05;65.11;100153.84;99389;1170;89084;-60
2021/03/21 04:01:11;;;;;;;12.57;6.63;;;;;;;-1.02;64.50;100138.55;99375;1178;82752;-60
2021/03/21 04:03:34;;;;;;;13.00;6.20;;;;;;;-1.09;64.96;100142.64;99400;1174;67079;-60
2021/03/21 04:05:47;;;;;;;10.83;6.00;;;;;;;-1.07;65.03;100139.88;99400;1178;87170;-60
2021/03/21 04:08:01;;;;;;;12.40;6.60;;;;;;;-1.03;64.97;100136.85;99401;1171;74814;-60
2021/03/21 04:10:16;;;;;;;13.30;6.50;;;;;;;-0.98;65.42;100137.32;99395;1174;88799;-61
2021/03/21 19:14:49;;;;;;;66.75;40.15;;;;;;;0.35;83.90;99748.95;97992;1175;69091;-62
2021/03/21 19:16:57;;;;;;;71.90;42.70;;;;;;;0.38;83.71;99750.48;98107;1171;84735;-65
2021/03/21 19:19:02;;;;;;;61.30;38.45;;;;;;;0.42;83.70;99752.70;98112;1174;75939;-63
2021/03/21 19:21:12;;;;;;;68.00;41.80;;;;;;;0.47;83.95;99749.62;98098;1170;89876;-63
2021/03/21 19:23:28;;;;;;;85.70;49.00;;;;;;;0.56;83.75;99757.59;98071;1174;82285;-64
2021/03/21 19:25:37;;;;;;;89.95;49.60;;;;;;;0.65;83.85;99757.72;98080;1175;69101;-65
2021/03/21 19:27:42;;;;;;;80.05;47.35;;;;;;;0.75;84.21;99761.19;98104;1173;84143;-62
2021/03/21 19:29:47;;;;;;;69.10;43.23;;;;;;;0.81;84.34;99750.00;98092;1175;74881;-61
2021/03/21 19:32:03;;;;;;;61.90;37.40;;;;;;;0.87;83.92;99760.06;98098;1171;89500;-62
2021/03/21 19:34:09;;;;;;;84.25;44.30;;;;;;;0.91;83.98;99767.59;98093;1174;82003;-63
2021/03/21 19:36:15;;;;;;;76.05;40.35;;;;;;;0.93;83.50;99762.16;98074;1175;69716;-66
2021/03/21 19:38:28;;;;;;;73.40;40.90;;;;;;;0.98;83.87;99762.55;98059;1175;85621;-63
2021/03/21 19:40:36;;;;;;;69.00;38.75;;;;;;;1.02;83.65;99766.59;98078;1173;74727;-62
2021/03/21 19:42:41;;;;;;;71.30;38.95;;;;;;;1.03;83.20;99770.94;98071;1174;89240;-62
2021/03/21 19:44:50;;;;;;;59.55;35.70;;;;;;;1.01;83.53;99763.11;98077;1175;82228;-64
2021/03/21 19:46:59;;;;;;;59.25;35.75;;;;;;;1.02;83.31;99761.27;98088;1174;69094;-64
2021/03/21 19:49:05;;;;;;;58.65;32.85;;;;;;;1.00;83.06;99763.24;98059;1170;85652;-60
2021/03/21 19:51:11;;;;;;;39.75;26.40;;;;;;;0.95;83.00;99776.14;98108;1175;75303;-61
2021/03/21 19:53:25;;;;;;;43.30;29.85;;;;;;;0.90;83.06;99765.94;98110;1175;88519;-60
2021/03/21 19:55:31;;;;;;;40.90;28.90;;;;;;;0.89;83.10;99766.06;98078;1173;81878;-61
2021/03/21 19:57:37;;;;;;;39.70;28.20;;;;;;;0.84;83.52;99770.98;98096;1174;66743;-60
2021/03/21 19:59:43;;;;;;;38.40;25.60;;;;;;;0.79;83.12;99779.39;98111;1175;86753;-63
2021/03/21 20:01:51;;;;;;;33.05;23.05;;;;;;;0.78;83.35;99779.52;98096;1175;75042;-63
2021/03/21 20:04:02;;;;;;;34.55;22.60;;;;;;;0.74;83.05;99781.64;98072;1175;89853;-64
2021/03/21 20:06:08;;;;;;;41.00;24.30;;;;;;;0.69;83.52;99775.08;98058;1174;81454;-64
2021/03/21 20:08:13;;;;;;;38.50;24.50;;;;;;;0.66;83.32;99780.67;98090;1173;69209;-62
2021/03/21 20:10:22;;;;;;;38.85;24.20;;;;;;;0.64;83.07;99791.42;98070;1171;85658;-61
2021/03/21 20:12:31;;;;;;;31.65;21.05;;;;;;;0.63;83.07;99792.42;98103;1175;75416;-61
2021/03/21 20:14:36;;;;;;;31.80;21.63;;;;;;;0.60;82.87;99792.70;98073;1174;89034;-62
2021/03/21 20:16:44;;;;;;;32.10;21.00;;;;;;;0.58;83.23;99795.48;98039;1174;83185;-64
2021/03/21 20:18:52;;;;;;;27.40;19.35;;;;;;;0.55;83.26;99789.61;98091;1169;69142;-63
2021/03/21 20:20:57;;;;;;;29.07;18.60;;;;;;;0.55;82.91;99794.92;98071;1174;85454;-61
2021/03/21 20:23:03;;;;;;;27.50;18.60;;;;;;;0.52;83.59;99798.70;98067;1175;75258;-62
2021/03/21 20:25:20;;;;;;;28.87;19.27;;;;;;;0.50;83.33;99799.82;98094;1175;89490;-63
2021/03/21 20:27:26;;;;;;;28.20;17.65;;;;;;;0.45;83.58;99800.25;98078;1175;82618;-65
2021/03/21 20:29:31;;;;;;;26.30;18.10;;;;;;;0.44;83.09;99803.06;98080;1171;70417;-62
2021/03/21 20:31:36;;;;;;;26.70;17.00;;;;;;;0.39;83.48;99811.43;98052;1174;86055;-61
2021/03/21 20:33:41;;;;;;;28.17;17.27;;;;;;;0.32;83.58;99810.33;98105;1171;75446;-65
2021/03/21 20:35:47;;;;;;;29.10;19.45;;;;;;;0.27;83.61;99814.38;98084;1173;89274;-61
2021/03/21 20:37:53;;;;;;;30.13;16.90;;;;;;;0.26;83.23;99823.30;98073;1175;82582;-61
2021/03/21 20:40:01;;;;;;;28.60;17.60;;;;;;;0.22;83.56;99817.42;98085;1175;69203;-62
2021/03/21 20:42:09;;;;;;;31.00;17.25;;;;;;;0.18;83.33;99818.69;98085;1174;85073;-62
2021/03/21 20:44:14;;;;;;;23.85;14.15;;;;;;;0.14;84.40;99827.89;98088;1175;75913;-63
2021/03/21 20:46:20;;;;;;;24.40;14.45;;;;;;;0.08;83.47;99827.63;98065;1174;90635;-65
2021/03/21 20:48:30;;;;;;;28.83;16.87;;;;;;;0.06;83.65;99830.39;98047;1174;82089;-62
2021/03/21 20:50:39;;;;;;;27.35;15.70;;;;;;;0.04;83.35;99832.36;98098;1174;69155;-64
2021/03/21 20:52:45;;;;;;;24.17;14.40;;;;;;;0.02;83.49;99839.63;98076;1173;85363;-64
2021/03/21 20:54:50;;;;;;;25.50;14.90;;;;;;;-0.04;83.58;99829.55;98109;1171;74789;-63
2021/03/21 20:56:56;;;;;;;23.75;14.80;;;;;;;-0.05;83.98;99834.01;98067;1175;90848;-62
2021/03/21 20:59:01;;;;;;;28.93;15.47;;;;;;;-0.07;83.49;99845.73;98084;1169;82678;-63
2021/03/21 21:01:07;;;;;;;31.30;15.85;;;;;;;-0.08;83.41;99846.70;98081;1173;69128;-64
2021/03/21 21:03:14;;;;;;;27.10;14.70;;;;;;;-0.15;83.48;99850.89;98095;1170;85494;-64
2021/03/21 21:05:20;;;;;;;29.37;15.80;;;;;;;-0.17;83.21;99851.04;98063;1171;76692;-63
2021/03/21 21:07:25;;;;;;;32.35;16.20;;;;;;;-0.16;83.49;99858.00;98058;1170;90251;-62
2021/03/21 21:09:31;;;;;;;30.35;14.40;;;;;;;-0.19;83.39;99862.73;98078;1173;83446;-63
2021/03/21 21:11:36;;;;;;;30.80;14.55;;;;;;;-0.23;83.48;99853.38;98094;1173;68348;-61
2021/03/21 21:13:41;;;;;;;32.30;15.20;;;;;;;-0.30;83.66;99854.90;98127;1172;86101;-61
2021/03/21 21:15:50;;;;;;;61.13;34.73;;;;;;;-0.30;83.67;99860.20;98112;1172;75260;-61
2021/03/21 21:17:56;;;;;;;71.80;38.25;;;;;;;-0.29;83.76;99861.87;98116;1173;88945;-62
2021/03/21 21:20:08;;;;;;;90.80;47.50;;;;;;;-0.28;83.69;99868.86;98092;1170;82037;-61
2021/03/21 21:22:13;;;;;;;68.30;35.33;;;;;;;-0.36;83.87;99861.58;98086;1175;66705;-61
2021/03/21 21:24:19;;;;;;;46.70;23.50;;;;;;;-0.38;83.91;99863.50;98070;1173;85534;-63
2021/03/21 21:26:24;;;;;;;33.10;18.10;;;;;;;-0.40;83.24;99868.11;98086;1175;75346;-62
2021/03/21 21:28:37;;;;;;;26.27;16.00;;;;;;;-0.43;83.72;99876.33;98092;1175;89494;-62
2021/03/21 21:30:43;;;;;;;23.65;15.13;;;;;;;-0.46;83.86;99870.44;98040;1175;83089;-64
2021/03/21 21:32:49;;;;;;;26.25;15.40;;;;;;;-0.50;83.50;99874.34;98087;1175;68960;-63
2021/03/21 21:34:54;;;;;;;25.75;14.10;;;;;;;-0.54;83.24;99872.92;98082;1174;85322;-62
2021/03/21 21:37:00;;;;;;;24.75;14.30;;;;;;;-0.57;83.75;99874.02;98102;1175;74380;-61
2021/03/21 21:39:06;;;;;;;24.40;14.70;;;;;;;-0.58;83.11;99874.17;98084;1174;90141;-62
2021/03/21 21:41:14;;;;;;;25.07;15.27;;;;;;;-0.61;83.22;99870.81;98070;1171;82447;-63
2021/03/21 21:43:24;;;;;;;24.87;16.40;;;;;;;-0.64;83.42;99875.53;98116;1173;67335;-63
2021/03/21 21:45:33;;;;;;;24.80;15.00;;;;;;;-0.67;83.30;99873.98;98094;1173;85130;-62
2021/03/21 21:47:40;;;;;;;27.00;16.35;;;;;;;-0.68;83.71;99874.09;98125;1171;74446;-62
2021/03/21 21:49:45;;;;;;;20.85;11.70;;;;;;;-0.70;83.77;99878.70;98108;1175;89823;-62
2021/03/21 21:51:51;;;;;;;18.45;11.10;;;;;;;-0.71;83.56;99880.51;98054;1174;82445;-60
2021/03/21 21:53:57;;;;;;;28.20;16.40;;;;;;;-0.69;83.66;99883.86;98115;1171;69129;-65
2021/03/21 21:56:04;;;;;;;39.03;20.37;;;;;;;-0.71;84.04;99883.16;98046;1174;86919;-64
2021/03/21 21:58:17;;;;;;;30.05;16.20;;;;;;;-0.72;83.68;99881.50;98041;1175;75769;-61
2021/03/21 22:00:28;;;;;;;28.75;15.10;;;;;;;-0.70;83.54;99879.55;98068;1175;89354;-63
2021/03/21 22:02:35;;;;;;;30.50;18.40;;;;;;;-0.71;83.68;99887.62;98076;1174;81816;-64
2021/03/21 22:04:49;;;;;;;30.97;17.60;;;;;;;-0.76;83.17;99888.02;98052;1173;69158;-64
2021/03/21 22:06:57;;;;;;;34.67;16.63;;;;;;;-0.73;84.01;99887.77;98088;1171;85921;-63
2021/03/21 22:09:03;;;;;;;40.80;20.90;;;;;;;-0.73;83.73;99900.17;98103;1175;74334;-64
2021/03/21 22:11:11;;;;;;;43.23;21.93;;;;;;;-0.75;83.44;99902.97;98085;1175;89978;-66
2021/03/21 22:13:23;;;;;;;43.55;21.05;;;;;;;-0.76;83.33;99901.28;98083;1170;81615;-65
2021/03/21 22:15:34;;;;;;;45.20;24.10;;;;;;;-0.80;83.40;99907.83;98134;1171;69094;-64
2021/03/21 22:17:39;;;;;;;44.43;21.80;;;;;;;-0.84;83.34;99914.34;99220;1156;86473;-66
2021/03/21 22:19:48;;;;;;;38.40;20.25;;;;;;;-0.90;83.82;99906.90;98080;1175;75470;-64
2021/03/21 22:21:54;;;;;;;33.97;17.13;;;;;;;-0.93;83.30;99909.80;98069;1170;89318;-69
2021/03/21 22:24:02;;;;;;;28.80;13.80;;;;;;;-0.96;83.62;99920.66;98068;1171;82669;-62
2021/03/21 22:26:10;;;;;;;29.75;13.90;;;;;;;-1.00;83.10;99915.75;98109;1170;69126;-64
2021/03/21 22:28:16;;;;;;;31.20;13.30;;;;;;;-1.02;83.44;99915.05;98059;1175;85625;-63
2021/03/21 22:30:26;;;;;;;26.85;12.35;;;;;;;-1.03;83.38;99914.20;98071;1175;76184;-63
2021/03/21 22:32:33;;;;;;;30.95;12.85;;;;;;;-1.04;83.51;99915.16;98101;1174;89195;-67
2021/03/21 22:34:39;;;;;;;28.37;12.47;;;;;;;-1.05;83.02;99918.80;98043;1175;82385;-62
2021/03/21 22:36:48;;;;;;;28.77;12.17;;;;;;;-1.10;83.26;99921.00;98076;1171;69177;-68
2021/03/21 22:38:55;;;;;;;32.65;13.40;;;;;;;-1.13;83.05;99923.89;98068;1175;85527;-70
2021/03/21 22:41:06;;;;;;;39.90;14.50;;;;;;;-1.13;83.65;99920.40;98078;1175;75414;-67
2021/03/21 22:43:12;;;;;;;43.20;16.97;;;;;;;-1.16;83.76;99920.65;98051;1171;90089;-63
2021/03/21 22:45:20;;;;;;;37.25;14.90;;;;;;;-1.17;83.18;99927.75;98081;1171;81631;-63
2021/03/21 22:47:28;;;;;;;29.50;12.90;;;;;;;-1.21;83.79;99927.16;98088;1170;69094;-65
2021/03/21 22:49:35;;;;;;;34.05;15.75;;;;;;;-1.26;83.89;99934.64;98061;1170;86110;-67
2021/03/21 22:51:40;;;;;;;40.95;18.05;;;;;;;-1.29;83.81;99931.43;98069;1174;74560;-67
2021/03/21 22:53:46;;;;;;;42.95;16.55;;;;;;;-1.29;83.24;99928.78;98050;1174;90328;-64
2021/03/21 22:55:55;;;;;;;36.70;15.10;;;;;;;-1.33;83.29;99929.98;98072;1171;82941;-63
2021/03/21 22:58:01;;;;;;;35.80;15.45;;;;;;;-1.35;83.50;99932.77;97970;1171;69283;-63
2021/03/21 23:00:14;;;;;;;31.40;13.70;;;;;;;-1.40;83.37;99942.06;98090;1172;85630;-64
2021/03/21 23:02:20;;;;;;;47.55;18.30;;;;;;;-1.40;83.72;99942.06;98093;1175;75155;-63
2021/03/21 23:04:25;;;;;;;35.25;14.75;;;;;;;-1.40;83.96;99939.41;98078;1170;89552;-64
2021/03/21 23:06:30;;;;;;;29.30;12.70;;;;;;;-1.42;83.25;99947.47;98054;1174;84756;-63
2021/03/21 23:08:36;;;;;;;27.90;11.83;;;;;;;-1.47;83.49;99943.50;98060;1175;67147;-63
2021/03/21 23:10:45;;;;;;;55.40;24.50;;;;;;;-1.49;83.86;99951.59;98065;1170;86190;-63
2021/03/21 23:12:51;;;;;;;70.80;32.00;;;;;;;-1.51;84.25;99955.33;98061;1170;75938;-65
2021/03/21 23:14:56;;;;;;;101.50;45.60;;;;;;;-1.50;83.64;99955.19;98052;1175;90485;-65
2021/03/21 23:17:02;;;;;;;118.10;45.45;;;;;;;-1.51;83.64;99947.39;98042;1174;83308;-62
2021/03/21 23:19:07;;;;;;;211.90;72.00;;;;;;;-1.50;83.58;99960.48;98081;1170;69238;-64
2021/03/21 23:21:16;;;;;;;186.55;64.45;;;;;;;-1.51;84.24;99966.73;98075;1175;86544;-65
2021/03/21 23:23:25;;;;;;;172.90;64.50;;;;;;;-1.49;84.09;99958.69;98113;1173;75020;-66
2021/03/21 23:25:31;;;;;;;121.05;50.25;;;;;;;-1.49;83.51;99961.34;98044;1175;90277;-65
2021/03/21 23:27:41;;;;;;;88.00;41.23;;;;;;;-1.46;83.69;99966.39;98073;1174;82943;-64
2021/03/21 23:29:46;;;;;;;70.13;32.67;;;;;;;-1.48;83.98;99961.20;98064;1171;68355;-65
2021/03/21 23:31:52;;;;;;;93.60;48.00;;;;;;;-1.45;83.50;99965.41;98055;1175;87285;-65
2021/03/21 23:33:57;;;;;;;72.67;34.33;;;;;;;-1.43;84.08;99966.96;98092;1170;74540;-65
2021/03/21 23:36:03;;;;;;;71.23;37.77;;;;;;;-1.42;83.50;99970.45;98060;1174;88797;-65
2021/03/21 23:38:09;;;;;;;52.35;29.70;;;;;;;-1.45;83.54;99968.90;98038;1175;82682;-63
2021/03/21 23:40:23;;;;;;;53.27;31.23;;;;;;;-1.49;83.94;99972.78;98063;1175;68956;-63
2021/03/21 23:42:28;;;;;;;40.80;23.17;;;;;;;-1.49;83.47;99974.58;98050;1174;87294;-63
2021/03/21 23:44:36;;;;;;;37.90;23.70;;;;;;;-1.53;83.38;99979.27;98038;1175;75400;-63
2021/03/21 23:46:42;;;;;;;41.20;23.10;;;;;;;-1.53;83.34;99991.66;98054;1173;90644;-62
2021/03/21 23:48:48;;;;;;;59.30;34.10;;;;;;;-1.61;83.55;99994.94;98010;1171;83025;-64
2021/03/21 23:50:57;;;;;;;55.40;30.15;;;;;;;-1.63;83.65;99988.93;98040;1170;69164;-64
2021/03/21 23:53:03;;;;;;;37.07;20.37;;;;;;;-1.66;83.30;99991.81;98043;1175;86724;-63
2021/03/21 23:55:12;;;;;;;61.10;35.15;;;;;;;-1.66;83.73;99991.81;98096;1174;76125;-64
2021/03/21 23:57:21;;;;;;;37.17;22.17;;;;;;;-1.69;83.47;99997.35;98066;1171;88768;-63
2021/03/21 23:59:29;;;;;;;40.00;21.50;;;;;;;-1.73;83.73;100005.67;98058;1174;82896;-63
